sensor_id;sensor_type;location;lat;lon;timestamp;temperature;humidity
38866;DHT22;62686;48.984;8.394;2024-02-23T00:41:16;7.40;99.90
38866;DHT22;62686;48.984;8.394;2024-02-23T00:43:45;7.40;99.90
38866;DHT22;62686;48.984;8.394;2024-02-23T00:46:14;7.30;99.90
38866;DHT22;62686;48.984;8.394;2024-02-23T00:48:43;7.30;99.90
38866;DHT22;62686;48.984;8.394;2024-02-23T00:51:14;7.40;99.90
38866;DHT22;62686;48.984;8.394;2024-02-23T00:53:43;7.40;99.90
38866;DHT22;62686;48.984;8.394;2024-02-23T00:56:11;7.30;99.90
38866;DHT22;62686;48.984;8.394;2024-02-23T00:58:42;7.30;99.90
38866;DHT22;62686;48.984;8.394;2024-02-23T01:01:11;7.20;99.90
38866;DHT22;62686;48.984;8.394;2024-02-23T01:03:40;7.20;99.90
38866;DHT22;62686;48.984;8.394;2024-02-23T01:06:10;7.20;99.90
38866;DHT22;62686;48.984;8.394;2024-02-23T01:08:38;7.20;99.90
38866;DHT22;62686;48.984;8.394;2024-02-23T01:11:08;7.20;99.90
38866;DHT22;62686;48.984;8.394;2024-02-23T01:13:37;7.30;99.90
38866;DHT22;62686;48.984;8.394;2024-02-23T01:16:07;7.20;99.90
38866;DHT22;62686;48.984;8.394;2024-02-23T01:18:36;7.10;99.90
38866;DHT22;62686;48.984;8.394;2024-02-23T01:21:04;7.10;99.90
38866;DHT22;62686;48.984;8.394;2024-02-23T01:23:33;7.00;99.90
38866;DHT22;62686;48.984;8.394;2024-02-23T01:26:02;7.00;99.90
38866;DHT22;62686;48.984;8.394;2024-02-23T01:28:31;7.00;99.90
38866;DHT22;62686;48.984;8.394;2024-02-23T01:31:00;7.00;99.90
38866;DHT22;62686;48.984;8.394;2024-02-23T01:33:30;6.90;99.90
38866;DHT22;62686;48.984;8.394;2024-02-23T01:35:58;7.00;99.90
38866;DHT22;62686;48.984;8.394;2024-02-23T01:38:27;6.90;99.90
38866;DHT22;62686;48.984;8.394;2024-02-23T01:40:59;7.00;99.90
38866;DHT22;62686;48.984;8.394;2024-02-23T01:43:28;7.00;99.90
38866;DHT22;62686;48.984;8.394;2024-02-23T01:45:57;7.00;99.90
38866;DHT22;62686;48.984;8.394;2024-02-23T01:48:26;6.90;99.90
38866;DHT22;62686;48.984;8.394;2024-02-23T01:50:57;7.00;99.90
38866;DHT22;62686;48.984;8.394;2024-02-23T01:53:27;7.00;99.90
38866;DHT22;62686;48.984;8.394;2024-02-23T01:55:57;7.10;99.90
38866;DHT22;62686;48.984;8.394;2024-02-23T01:58:27;7.10;99.90
38866;DHT22;62686;48.984;8.394;2024-02-23T02:00:56;7.20;99.90
38866;DHT22;62686;48.984;8.394;2024-02-23T02:03:25;7.30;99.90
38866;DHT22;62686;48.984;8.394;2024-02-23T02:05:57;7.40;99.90
38866;DHT22;62686;48.984;8.394;2024-02-23T02:08:26;7.40;99.90
38866;DHT22;62686;48.984;8.394;2024-02-23T02:10:55;7.40;99.90
38866;DHT22;62686;48.984;8.394;2024-02-23T02:13:23;7.40;99.90
38866;DHT22;62686;48.984;8.394;2024-02-23T02:15:52;7.40;99.90
38866;DHT22;62686;48.984;8.394;2024-02-23T02:18:21;7.40;99.90
38866;DHT22;62686;48.984;8.394;2024-02-23T02:20:55;7.30;99.90
38866;DHT22;62686;48.984;8.394;2024-02-23T02:23:25;7.40;99.90
38866;DHT22;62686;48.984;8.394;2024-02-23T02:25:54;7.40;99.90
38866;DHT22;62686;48.984;8.394;2024-02-23T02:28:23;7.40;99.90
38866;DHT22;62686;48.984;8.394;2024-02-23T02:30:53;7.30;99.90
38866;DHT22;62686;48.984;8.394;2024-02-23T02:33:22;7.30;99.90
38866;DHT22;62686;48.984;8.394;2024-02-23T02:35:51;7.30;99.90
38866;DHT22;62686;48.984;8.394;2024-02-23T02:38:22;7.30;99.90
38866;DHT22;62686;48.984;8.394;2024-02-23T02:40:51;7.30;99.90
38866;DHT22;62686;48.984;8.394;2024-02-23T02:43:20;7.30;99.90
38866;DHT22;62686;48.984;8.394;2024-02-23T02:45:48;7.20;99.90
38866;DHT22;62686;48.984;8.394;2024-02-23T02:48:17;7.20;99.90
38866;DHT22;62686;48.984;8.394;2024-02-23T02:50:46;7.20;99.90
38866;DHT22;62686;48.984;8.394;2024-02-23T02:53:15;7.20;99.90
38866;DHT22;62686;48.984;8.394;2024-02-23T02:55:45;7.20;99.90
38866;DHT22;62686;48.984;8.394;2024-02-23T02:58:14;7.20;99.90
38866;DHT22;62686;48.984;8.394;2024-02-23T03:00:43;7.20;99.90
38866;DHT22;62686;48.984;8.394;2024-02-23T03:03:11;7.30;99.90
38866;DHT22;62686;48.984;8.394;2024-02-23T03:05:40;7.20;99.90
38866;DHT22;62686;48.984;8.394;2024-02-23T03:08:09;7.20;99.90
38866;DHT22;62686;48.984;8.394;2024-02-23T03:10:38;7.20;99.90
38866;DHT22;62686;48.984;8.394;2024-02-23T03:13:08;7.10;99.90
38866;DHT22;62686;48.984;8.394;2024-02-23T03:15:37;7.20;99.90
38866;DHT22;62686;48.984;8.394;2024-02-23T03:18:06;7.20;99.90
38866;DHT22;62686;48.984;8.394;2024-02-23T03:20:36;7.10;99.90
38866;DHT22;62686;48.984;8.394;2024-02-23T03:23:08;7.00;99.90
38866;DHT22;62686;48.984;8.394;2024-02-23T03:25:37;6.80;99.90
38866;DHT22;62686;48.984;8.394;2024-02-23T03:28:05;6.70;99.90
38866;DHT22;62686;48.984;8.394;2024-02-23T03:30:35;6.60;99.90
38866;DHT22;62686;48.984;8.394;2024-02-23T03:33:05;6.50;99.90
38866;DHT22;62686;48.984;8.394;2024-02-23T03:35:34;6.50;99.90
38866;DHT22;62686;48.984;8.394;2024-02-23T03:38:02;6.40;99.90
38866;DHT22;62686;48.984;8.394;2024-02-23T03:40:31;6.50;99.90
38866;DHT22;62686;48.984;8.394;2024-02-23T03:43:00;6.60;99.90
38866;DHT22;62686;48.984;8.394;2024-02-23T03:45:31;6.70;99.90
38866;DHT22;62686;48.984;8.394;2024-02-23T03:48:00;6.80;99.90
38866;DHT22;62686;48.984;8.394;2024-02-23T03:50:31;6.90;99.90
38866;DHT22;62686;48.984;8.394;2024-02-23T03:52:59;6.90;99.90
38866;DHT22;62686;48.984;8.394;2024-02-23T03:55:28;6.80;99.90
38866;DHT22;62686;48.984;8.394;2024-02-23T03:57:56;6.80;99.90
38866;DHT22;62686;48.984;8.394;2024-02-23T04:00:25;6.80;99.90
38866;DHT22;62686;48.984;8.394;2024-02-23T04:02:55;6.80;99.90
38866;DHT22;62686;48.984;8.394;2024-02-23T04:05:24;6.80;99.90
38866;DHT22;62686;48.984;8.394;2024-02-23T04:46:10;6.60;99.90
38866;DHT22;62686;48.984;8.394;2024-02-23T04:48:39;6.60;99.90
38866;DHT22;62686;48.984;8.394;2024-02-23T04:51:08;6.50;99.90
38866;DHT22;62686;48.984;8.394;2024-02-23T04:53:37;6.50;99.90
38866;DHT22;62686;48.984;8.394;2024-02-23T04:56:06;6.50;99.90
38866;DHT22;62686;48.984;8.394;2024-02-23T04:58:35;6.50;99.90
38866;DHT22;62686;48.984;8.394;2024-02-23T05:01:04;6.50;99.90
38866;DHT22;62686;48.984;8.394;2024-02-23T05:03:34;6.50;99.90
38866;DHT22;62686;48.984;8.394;2024-02-23T05:06:03;6.60;99.90
38866;DHT22;62686;48.984;8.394;2024-02-23T05:08:32;6.50;99.90
38866;DHT22;62686;48.984;8.394;2024-02-23T05:11:01;6.60;99.90
38866;DHT22;62686;48.984;8.394;2024-02-23T05:13:29;6.60;99.90
38866;DHT22;62686;48.984;8.394;2024-02-23T05:15:58;6.50;99.90
38866;DHT22;62686;48.984;8.394;2024-02-23T05:18:26;6.50;99.90
38866;DHT22;62686;48.984;8.394;2024-02-23T05:20:57;6.40;99.90
38866;DHT22;62686;48.984;8.394;2024-02-23T05:23:25;6.40;99.90
38866;DHT22;62686;48.984;8.394;2024-02-23T05:25:54;6.40;99.90
38866;DHT22;62686;48.984;8.394;2024-02-23T05:28:22;6.30;99.90
38866;DHT22;62686;48.984;8.394;2024-02-23T05:30:51;6.20;99.90
38866;DHT22;62686;48.984;8.394;2024-02-23T05:33:24;6.00;99.90
38866;DHT22;62686;48.984;8.394;2024-02-23T05:35:53;6.00;99.90
38866;DHT22;62686;48.984;8.394;2024-02-23T05:38:23;6.00;99.90
38866;DHT22;62686;48.984;8.394;2024-02-23T05:40:51;5.90;99.90
38866;DHT22;62686;48.984;8.394;2024-02-23T05:43:20;6.00;99.90
38866;DHT22;62686;48.984;8.394;2024-02-23T05:45:49;5.90;99.90
38866;DHT22;62686;48.984;8.394;2024-02-23T05:48:18;5.90;99.90
38866;DHT22;62686;48.984;8.394;2024-02-23T05:50:46;5.80;99.90
38866;DHT22;62686;48.984;8.394;2024-02-23T05:53:15;5.80;99.90
38866;DHT22;62686;48.984;8.394;2024-02-23T06:30:48;5.20;99.90
38866;DHT22;62686;48.984;8.394;2024-02-23T06:33:17;5.20;99.90
38866;DHT22;62686;48.984;8.394;2024-02-23T06:35:46;5.20;99.90
38866;DHT22;62686;48.984;8.394;2024-02-23T06:38:14;5.30;99.90
38866;DHT22;62686;48.984;8.394;2024-02-23T06:40:43;5.30;99.90
38866;DHT22;62686;48.984;8.394;2024-02-23T06:43:12;5.30;99.90
38866;DHT22;62686;48.984;8.394;2024-02-23T06:45:40;5.30;99.90
38866;DHT22;62686;48.984;8.394;2024-02-23T06:48:10;5.30;99.90
38866;DHT22;62686;48.984;8.394;2024-02-23T06:50:41;5.30;99.90
38866;DHT22;62686;48.984;8.394;2024-02-23T06:53:10;5.30;99.90
38866;DHT22;62686;48.984;8.394;2024-02-23T06:55:38;5.30;99.90
38866;DHT22;62686;48.984;8.394;2024-02-23T06:58:07;5.30;99.90
38866;DHT22;62686;48.984;8.394;2024-02-23T07:00:37;5.30;99.90
38866;DHT22;62686;48.984;8.394;2024-02-23T07:03:06;5.30;99.90
38866;DHT22;62686;48.984;8.394;2024-02-23T07:05:36;5.40;99.90
38866;DHT22;62686;48.984;8.394;2024-02-23T07:08:05;5.30;99.90
38866;DHT22;62686;48.984;8.394;2024-02-23T07:10:35;5.30;99.90
38866;DHT22;62686;48.984;8.394;2024-02-23T07:13:03;5.30;99.90
38866;DHT22;62686;48.984;8.394;2024-02-23T07:15:35;5.30;99.90
38866;DHT22;62686;48.984;8.394;2024-02-23T07:18:04;5.30;99.90
38866;DHT22;62686;48.984;8.394;2024-02-23T07:20:37;5.40;99.90
38866;DHT22;62686;48.984;8.394;2024-02-23T07:23:06;5.40;99.90
38866;DHT22;62686;48.984;8.394;2024-02-23T07:25:36;5.50;99.90
38866;DHT22;62686;48.984;8.394;2024-02-23T07:28:05;5.50;99.90
38866;DHT22;62686;48.984;8.394;2024-02-23T07:30:33;5.50;99.90
38866;DHT22;62686;48.984;8.394;2024-02-23T07:33:03;5.30;99.90
38866;DHT22;62686;48.984;8.394;2024-02-23T07:35:32;5.40;99.90
38866;DHT22;62686;48.984;8.394;2024-02-23T08:48:20;8.20;99.90
38866;DHT22;62686;48.984;8.394;2024-02-23T08:50:48;8.20;99.90
38866;DHT22;62686;48.984;8.394;2024-02-23T08:53:17;8.20;99.90
38866;DHT22;62686;48.984;8.394;2024-02-23T08:55:45;8.20;99.90
38866;DHT22;62686;48.984;8.394;2024-02-23T08:58:14;8.30;99.90
38866;DHT22;62686;48.984;8.394;2024-02-23T09:00:43;8.50;99.90
38866;DHT22;62686;48.984;8.394;2024-02-23T09:03:11;8.60;99.90
38866;DHT22;62686;48.984;8.394;2024-02-23T09:05:42;8.90;99.90
38866;DHT22;62686;48.984;8.394;2024-02-23T09:08:10;9.20;99.90
38866;DHT22;62686;48.984;8.394;2024-02-23T09:10:39;9.50;99.90
38866;DHT22;62686;48.984;8.394;2024-02-23T09:13:07;9.70;99.90
38866;DHT22;62686;48.984;8.394;2024-02-23T09:15:36;9.90;99.90
38866;DHT22;62686;48.984;8.394;2024-02-23T09:18:05;10.20;99.90
38866;DHT22;62686;48.984;8.394;2024-02-23T09:20:33;10.10;99.90
38866;DHT22;62686;48.984;8.394;2024-02-23T09:23:04;10.40;99.90
38866;DHT22;62686;48.984;8.394;2024-02-23T09:25:32;10.40;99.90
38866;DHT22;62686;48.984;8.394;2024-02-23T09:28:00;10.30;99.90
38866;DHT22;62686;48.984;8.394;2024-02-23T09:30:29;10.20;99.90
38866;DHT22;62686;48.984;8.394;2024-02-23T09:32:59;10.20;99.90
38866;DHT22;62686;48.984;8.394;2024-02-23T09:35:27;10.20;99.90
38866;DHT22;62686;48.984;8.394;2024-02-23T09:37:56;10.20;99.90
38866;DHT22;62686;48.984;8.394;2024-02-23T09:40:26;10.20;99.90
38866;DHT22;62686;48.984;8.394;2024-02-23T09:42:56;10.10;99.90
38866;DHT22;62686;48.984;8.394;2024-02-23T09:45:26;9.90;99.90
38866;DHT22;62686;48.984;8.394;2024-02-23T09:47:56;9.80;99.90
38866;DHT22;62686;48.984;8.394;2024-02-23T09:50:25;9.70;99.90
38866;DHT22;62686;48.984;8.394;2024-02-23T09:52:56;9.60;99.90
38866;DHT22;62686;48.984;8.394;2024-02-23T09:55:28;9.60;99.90
38866;DHT22;62686;48.984;8.394;2024-02-23T09:57:57;9.60;99.90
38866;DHT22;62686;48.984;8.394;2024-02-23T10:00:27;9.70;99.90
38866;DHT22;62686;48.984;8.394;2024-02-23T10:02:58;9.80;99.90
38866;DHT22;62686;48.984;8.394;2024-02-23T10:05:30;9.90;99.90
38866;DHT22;62686;48.984;8.394;2024-02-23T10:08:00;10.00;99.90
38866;DHT22;62686;48.984;8.394;2024-02-23T10:10:33;10.10;99.90
38866;DHT22;62686;48.984;8.394;2024-02-23T10:13:02;10.20;99.90
38866;DHT22;62686;48.984;8.394;2024-02-23T10:15:32;10.40;99.90
38866;DHT22;62686;48.984;8.394;2024-02-23T10:18:00;10.40;99.90
38866;DHT22;62686;48.984;8.394;2024-02-23T10:20:29;10.40;99.90
38866;DHT22;62686;48.984;8.394;2024-02-23T10:22:58;10.40;99.90
38866;DHT22;62686;48.984;8.394;2024-02-23T10:25:27;10.40;99.90
38866;DHT22;62686;48.984;8.394;2024-02-23T10:27:57;10.30;99.90
38866;DHT22;62686;48.984;8.394;2024-02-23T10:30:27;10.20;99.90
38866;DHT22;62686;48.984;8.394;2024-02-23T10:32:56;10.20;99.90
38866;DHT22;62686;48.984;8.394;2024-02-23T10:35:26;10.30;99.90
38866;DHT22;62686;48.984;8.394;2024-02-23T10:37:55;10.50;99.90
38866;DHT22;62686;48.984;8.394;2024-02-23T10:40:25;10.70;99.90
38866;DHT22;62686;48.984;8.394;2024-02-23T10:43:01;10.80;99.90
38866;DHT22;62686;48.984;8.394;2024-02-23T10:45:31;11.30;99.90
38866;DHT22;62686;48.984;8.394;2024-02-23T10:48:00;11.70;99.90
38866;DHT22;62686;48.984;8.394;2024-02-23T10:50:29;11.70;99.90
38866;DHT22;62686;48.984;8.394;2024-02-23T10:53:01;11.80;99.90
38866;DHT22;62686;48.984;8.394;2024-02-23T10:55:30;11.70;99.90
38866;DHT22;62686;48.984;8.394;2024-02-23T10:58:02;11.90;99.90
38866;DHT22;62686;48.984;8.394;2024-02-23T11:00:31;12.20;99.90
38866;DHT22;62686;48.984;8.394;2024-02-23T11:03:00;12.40;99.90
38866;DHT22;62686;48.984;8.394;2024-02-23T11:05:31;12.40;99.90
38866;DHT22;62686;48.984;8.394;2024-02-23T11:07:59;12.20;99.90
38866;DHT22;62686;48.984;8.394;2024-02-23T11:10:28;12.30;99.90
38866;DHT22;62686;48.984;8.394;2024-02-23T11:13:01;12.50;99.90
38866;DHT22;62686;48.984;8.394;2024-02-23T11:15:31;12.50;99.90
38866;DHT22;62686;48.984;8.394;2024-02-23T11:18:21;12.80;99.90
38866;DHT22;62686;48.984;8.394;2024-02-23T11:20:54;13.20;99.90
38866;DHT22;62686;48.984;8.394;2024-02-23T11:23:24;13.20;99.90
38866;DHT22;62686;48.984;8.394;2024-02-23T11:26:04;13.40;99.90
38866;DHT22;62686;48.984;8.394;2024-02-23T11:28:42;13.30;99.90
38866;DHT22;62686;48.984;8.394;2024-02-23T11:31:12;12.80;99.90
38866;DHT22;62686;48.984;8.394;2024-02-23T11:33:48;12.40;99.90
38866;DHT22;62686;48.984;8.394;2024-02-23T11:36:24;12.10;99.90
38866;DHT22;62686;48.984;8.394;2024-02-23T11:38:53;11.60;99.90
38866;DHT22;62686;48.984;8.394;2024-02-23T11:41:23;11.30;99.90
38866;DHT22;62686;48.984;8.394;2024-02-23T11:43:54;11.30;99.90
38866;DHT22;62686;48.984;8.394;2024-02-23T11:46:23;11.50;99.90
38866;DHT22;62686;48.984;8.394;2024-02-23T11:48:52;11.70;99.90
38866;DHT22;62686;48.984;8.394;2024-02-23T11:51:22;11.90;99.90
38866;DHT22;62686;48.984;8.394;2024-02-23T11:53:55;11.90;99.90
38866;DHT22;62686;48.984;8.394;2024-02-23T11:56:26;12.10;99.90
38866;DHT22;62686;48.984;8.394;2024-02-23T11:58:56;12.10;99.90
38866;DHT22;62686;48.984;8.394;2024-02-23T12:01:25;12.50;99.90
38866;DHT22;62686;48.984;8.394;2024-02-23T12:03:57;12.80;99.90
38866;DHT22;62686;48.984;8.394;2024-02-23T12:06:25;13.00;99.90
38866;DHT22;62686;48.984;8.394;2024-02-23T12:08:57;12.90;99.90
38866;DHT22;62686;48.984;8.394;2024-02-23T12:11:26;12.90;99.90
38866;DHT22;62686;48.984;8.394;2024-02-23T12:13:57;13.30;99.90
38866;DHT22;62686;48.984;8.394;2024-02-23T12:16:26;14.30;99.90
38866;DHT22;62686;48.984;8.394;2024-02-23T15:33:21;11.30;99.90
38866;DHT22;62686;48.984;8.394;2024-02-23T15:35:50;11.10;99.90
38866;DHT22;62686;48.984;8.394;2024-02-23T16:05:13;11.30;99.90
38866;DHT22;62686;48.984;8.394;2024-02-23T16:07:43;11.30;99.90
38866;DHT22;62686;48.984;8.394;2024-02-23T17:10:40;7.10;99.90
38866;DHT22;62686;48.984;8.394;2024-02-23T17:13:08;7.10;99.90
38866;DHT22;62686;48.984;8.394;2024-02-23T17:15:37;7.00;99.90
38866;DHT22;62686;48.984;8.394;2024-02-23T17:18:05;6.90;99.90
38866;DHT22;62686;48.984;8.394;2024-02-23T17:20:35;6.70;99.90
38866;DHT22;62686;48.984;8.394;2024-02-23T17:23:03;6.60;99.90
38866;DHT22;62686;48.984;8.394;2024-02-23T17:25:32;6.50;99.90
38866;DHT22;62686;48.984;8.394;2024-02-23T17:28:02;6.40;99.90
38866;DHT22;62686;48.984;8.394;2024-02-23T17:30:31;6.20;99.90
38866;DHT22;62686;48.984;8.394;2024-02-23T17:32:59;6.20;99.90
38866;DHT22;62686;48.984;8.394;2024-02-23T17:35:28;6.10;99.90
38866;DHT22;62686;48.984;8.394;2024-02-23T17:37:56;6.00;99.90
38866;DHT22;62686;48.984;8.394;2024-02-23T17:40:25;5.90;99.90
38866;DHT22;62686;48.984;8.394;2024-02-23T17:42:54;5.80;99.90
38866;DHT22;62686;48.984;8.394;2024-02-23T17:45:23;5.70;99.90
38866;DHT22;62686;48.984;8.394;2024-02-23T17:47:52;5.50;99.90
38866;DHT22;62686;48.984;8.394;2024-02-23T17:50:21;5.40;99.90
38866;DHT22;62686;48.984;8.394;2024-02-23T17:52:49;5.20;99.90
38866;DHT22;62686;48.984;8.394;2024-02-23T17:55:18;5.10;99.90
38866;DHT22;62686;48.984;8.394;2024-02-23T17:57:46;4.90;99.90
38866;DHT22;62686;48.984;8.394;2024-02-23T18:00:16;4.90;99.90
38866;DHT22;62686;48.984;8.394;2024-02-23T18:02:46;4.80;99.90
38866;DHT22;62686;48.984;8.394;2024-02-23T18:05:15;4.70;99.90
38866;DHT22;62686;48.984;8.394;2024-02-23T18:07:43;4.60;99.90
38866;DHT22;62686;48.984;8.394;2024-02-23T18:10:12;4.60;99.90
38866;DHT22;62686;48.984;8.394;2024-02-23T18:12:40;4.50;99.90
38866;DHT22;62686;48.984;8.394;2024-02-23T18:15:09;4.50;99.90
38866;DHT22;62686;48.984;8.394;2024-02-23T18:17:38;4.40;99.90
38866;DHT22;62686;48.984;8.394;2024-02-23T19:29:58;5.80;99.90
38866;DHT22;62686;48.984;8.394;2024-02-23T19:32:29;5.70;99.90
38866;DHT22;62686;48.984;8.394;2024-02-23T19:34:58;5.60;99.90
38866;DHT22;62686;48.984;8.394;2024-02-23T19:37:27;5.70;99.90
38866;DHT22;62686;48.984;8.394;2024-02-23T19:39:55;5.70;99.90
38866;DHT22;62686;48.984;8.394;2024-02-23T19:42:23;5.80;99.90
38866;DHT22;62686;48.984;8.394;2024-02-23T19:44:52;5.90;99.90
38866;DHT22;62686;48.984;8.394;2024-02-23T19:47:23;6.00;99.90
38866;DHT22;62686;48.984;8.394;2024-02-23T19:49:51;6.10;99.90
38866;DHT22;62686;48.984;8.394;2024-02-23T19:52:20;6.10;99.90
38866;DHT22;62686;48.984;8.394;2024-02-23T19:54:48;6.10;99.90
38866;DHT22;62686;48.984;8.394;2024-02-23T19:57:17;6.20;99.90
38866;DHT22;62686;48.984;8.394;2024-02-23T19:59:46;6.30;99.90
38866;DHT22;62686;48.984;8.394;2024-02-23T20:02:14;6.20;99.90
38866;DHT22;62686;48.984;8.394;2024-02-23T20:04:44;6.10;99.90
38866;DHT22;62686;48.984;8.394;2024-02-23T20:07:18;6.00;99.90
38866;DHT22;62686;48.984;8.394;2024-02-23T20:09:48;6.00;99.90
38866;DHT22;62686;48.984;8.394;2024-02-23T20:12:16;6.00;99.90
38866;DHT22;62686;48.984;8.394;2024-02-23T20:14:47;5.90;99.90
38866;DHT22;62686;48.984;8.394;2024-02-23T20:17:15;5.90;99.90
38866;DHT22;62686;48.984;8.394;2024-02-23T20:19:46;5.70;99.90
38866;DHT22;62686;48.984;8.394;2024-02-23T20:22:14;5.50;99.90
38866;DHT22;62686;48.984;8.394;2024-02-23T20:24:45;5.20;99.90
38866;DHT22;62686;48.984;8.394;2024-02-23T20:27:15;4.90;99.90
38866;DHT22;62686;48.984;8.394;2024-02-23T20:29:43;4.70;99.90
38866;DHT22;62686;48.984;8.394;2024-02-23T20:32:12;4.50;99.90
38866;DHT22;62686;48.984;8.394;2024-02-23T20:34:41;4.20;99.90
38866;DHT22;62686;48.984;8.394;2024-02-23T20:37:11;4.00;99.90
38866;DHT22;62686;48.984;8.394;2024-02-23T20:39:40;3.90;99.90
38866;DHT22;62686;48.984;8.394;2024-02-23T20:42:09;3.80;99.90
38866;DHT22;62686;48.984;8.394;2024-02-23T20:44:37;3.70;99.90
38866;DHT22;62686;48.984;8.394;2024-02-23T20:47:06;3.60;99.90
38866;DHT22;62686;48.984;8.394;2024-02-23T20:49:36;3.50;99.90
38866;DHT22;62686;48.984;8.394;2024-02-23T20:52:05;3.40;99.90
38866;DHT22;62686;48.984;8.394;2024-02-23T20:54:36;3.30;99.90
38866;DHT22;62686;48.984;8.394;2024-02-23T20:57:06;3.20;99.90
38866;DHT22;62686;48.984;8.394;2024-02-23T20:59:35;3.10;99.90
38866;DHT22;62686;48.984;8.394;2024-02-23T21:02:03;3.10;99.90
38866;DHT22;62686;48.984;8.394;2024-02-23T21:04:32;3.00;99.90
38866;DHT22;62686;48.984;8.394;2024-02-23T21:07:02;3.00;99.90
38866;DHT22;62686;48.984;8.394;2024-02-23T21:09:31;2.90;99.90
38866;DHT22;62686;48.984;8.394;2024-02-23T21:12:01;3.00;99.90
38866;DHT22;62686;48.984;8.394;2024-02-23T21:14:30;2.90;99.90
38866;DHT22;62686;48.984;8.394;2024-02-23T21:17:00;2.90;99.90
38866;DHT22;62686;48.984;8.394;2024-02-23T21:19:28;2.90;99.90
38866;DHT22;62686;48.984;8.394;2024-02-23T21:21:57;2.80;99.90
38866;DHT22;62686;48.984;8.394;2024-02-23T21:24:26;2.80;99.90
38866;DHT22;62686;48.984;8.394;2024-02-23T21:26:54;2.80;99.90
38866;DHT22;62686;48.984;8.394;2024-02-23T21:29:25;2.80;99.90
38866;DHT22;62686;48.984;8.394;2024-02-23T21:31:53;2.70;99.90
38866;DHT22;62686;48.984;8.394;2024-02-23T21:34:23;2.70;99.90
38866;DHT22;62686;48.984;8.394;2024-02-23T21:36:51;2.60;99.90
38866;DHT22;62686;48.984;8.394;2024-02-23T21:39:20;2.50;99.90
38866;DHT22;62686;48.984;8.394;2024-02-23T21:41:48;2.50;99.90
38866;DHT22;62686;48.984;8.394;2024-02-23T21:44:17;2.40;99.90
38866;DHT22;62686;48.984;8.394;2024-02-23T21:46:46;2.50;99.90
38866;DHT22;62686;48.984;8.394;2024-02-23T21:49:15;2.50;99.90
38866;DHT22;62686;48.984;8.394;2024-02-23T21:51:43;2.40;99.90
38866;DHT22;62686;48.984;8.394;2024-02-23T21:54:12;2.40;99.90
38866;DHT22;62686;48.984;8.394;2024-02-23T21:56:41;2.40;99.90
38866;DHT22;62686;48.984;8.394;2024-02-23T21:59:09;2.30;99.90
38866;DHT22;62686;48.984;8.394;2024-02-23T22:01:38;2.30;99.90
38866;DHT22;62686;48.984;8.394;2024-02-23T22:04:08;2.20;99.90
38866;DHT22;62686;48.984;8.394;2024-02-23T22:06:36;2.20;99.90
38866;DHT22;62686;48.984;8.394;2024-02-23T22:09:05;2.20;99.90
38866;DHT22;62686;48.984;8.394;2024-02-23T22:11:34;2.20;99.90
38866;DHT22;62686;48.984;8.394;2024-02-23T22:14:02;2.30;99.90
38866;DHT22;62686;48.984;8.394;2024-02-23T22:16:31;2.40;99.90
38866;DHT22;62686;48.984;8.394;2024-02-23T22:18:59;2.60;99.90
38866;DHT22;62686;48.984;8.394;2024-02-23T22:21:29;2.80;99.90
38866;DHT22;62686;48.984;8.394;2024-02-23T22:23:58;3.20;99.90
38866;DHT22;62686;48.984;8.394;2024-02-23T22:26:27;3.70;99.90
38866;DHT22;62686;48.984;8.394;2024-02-23T22:28:56;4.40;99.90
38866;DHT22;62686;48.984;8.394;2024-02-23T22:31:24;5.10;99.90
38866;DHT22;62686;48.984;8.394;2024-02-23T22:33:53;5.60;99.90
38866;DHT22;62686;48.984;8.394;2024-02-23T22:36:22;5.90;99.90
38866;DHT22;62686;48.984;8.394;2024-02-23T22:38:52;6.10;99.90
38866;DHT22;62686;48.984;8.394;2024-02-23T22:41:21;6.10;99.90
38866;DHT22;62686;48.984;8.394;2024-02-23T22:43:50;6.10;99.90
38866;DHT22;62686;48.984;8.394;2024-02-23T22:46:18;6.20;99.90
38866;DHT22;62686;48.984;8.394;2024-02-23T22:48:47;6.20;99.90
38866;DHT22;62686;48.984;8.394;2024-02-23T22:51:16;6.30;99.90
38866;DHT22;62686;48.984;8.394;2024-02-23T22:53:45;6.30;99.90
38866;DHT22;62686;48.984;8.394;2024-02-23T22:56:15;6.30;99.90
